Latest Weather Observations for Marble Bar

IDW60801

Issued at 11:24 pm WST Friday 28 February 2020 (issued every 10 minutes, with the page automatically refreshed every 10 minutes)

About weather observations | Map of weather stations | Latest weather observations for WA | Other Formats
Station Details ID: 004106 Name: MARBLE BAR Lat: -21.18 Lon: 119.75 Height: 182.3 m
Data from the previous 72 hours. | See also: Recent months at Marble Bar
Date/Time
WST
Temp
°C
App
Temp
°C
Dew
Point
°C
Rel
Hum
%
Delta-T
°C
Wind Press
QNH
hPa
Press
MSL
hPa
Rain since
9am
mm
Dir  Spd
km/h
Gust
km/h
Spd
kts
Gust
kts
28/11:00pm 33.2 35.5 20.7 47 8.4 SW 9 13 5 7 1005.4 1003.9 0.0
28/10:30pm 33.4 36.2 20.9 48 8.5 WSW 7 11 4 6 1005.4 1003.9 0.0
28/10:00pm 33.7 35.9 20.5 46 8.9 W 9 17 5 9 1005.4 1003.9 0.0
28/09:30pm 33.3 36.1 20.8 48 8.4 WNW 7 13 4 7 1005.5 1004.0 0.0
28/09:00pm 33.3 37.3 22.1 52 7.7 N 4 6 2 3 1005.5 1004.0 0.0
28/08:30pm 34.0 37.3 21.4 47 8.6 NW 6 9 3 5 1005.3 1003.8 0.0
28/08:00pm 34.2 37.0 21.6 47 8.6 NW 9 15 5 8 1005.2 1003.7 0.0
28/07:30pm 34.7 36.8 21.7 46 8.9 NW 13 20 7 11 1004.6 1003.1 0.0
28/07:00pm 36.1 38.3 20.4 40 10.6 NNW 9 15 5 8 1003.9 1002.4 0.0
28/06:30pm 38.7 39.3 15.7 25 14.7 NE 7 11 4 6 1003.3 1001.7 0.0
28/06:00pm 39.3 40.0 15.6 24 15.2 N 6 9 3 5 1003.1 1001.5 0.0
28/05:30pm 40.4 40.6 14.6 22 16.4 N 7 11 4 6 1002.7 1001.1 0.0
28/05:00pm 41.0 41.0 15.1 22 16.6 NW 9 15 5 8 1002.5 1000.9 0.0
28/04:30pm 40.3 40.4 16.5 25 15.5 WNW 11 17 6 9 1002.4 1000.8 0.0
28/04:00pm 40.1 41.1 16.3 24 15.5 NW 6 9 3 5 1002.7 1001.1 0.0
28/03:30pm 38.5 38.3 16.7 27 14.1 NNW 13 24 7 13 1003.2 1001.6 0.0
28/03:00pm 39.0 37.4 16.6 27 14.6 NE 20 35 11 19 1003.6 1002.0 0.0
28/02:30pm 40.4 39.5 18.3 27 14.7 NW 20 37 11 20 1003.5 1001.9 0.0
28/02:00pm 39.5 39.6 16.4 25 15.0 N 11 30 6 16 1004.0 1002.5 0.0
28/01:30pm 41.6 42.2 17.6 25 15.9 ESE 11 19 6 10 1004.3 1002.8 0.0
28/01:00pm 41.0 41.6 17.7 26 15.5 NE 11 24 6 13 1004.8 1003.3 0.0
28/12:30pm 40.5 41.4 18.4 27 14.7 ENE 11 20 6 11 1005.3 1003.8 0.0
28/12:00pm 40.3 41.9 18.3 28 14.7 ENE 7 19 4 10 1006.0 1004.5 0.0
28/11:30am 39.6 41.7 19.3 30 13.7 SE 7 13 4 7 1006.3 1004.7 0.0
28/11:00am 38.7 41.7 20.9 35 12.2 SE 6 11 3 6 1006.7 1005.1 0.0
28/10:30am 37.1 40.5 21.6 40 10.7 NE 6 9 3 5 1007.0 1005.4 0.0
28/10:00am 36.4 39.9 21.8 42 10.1 S 6 9 3 5 1007.3 1005.7 0.0
28/09:30am 35.8 39.6 22.4 46 9.3 SE 6 9 3 5 1007.5 1005.9 0.0
28/09:00am 34.6 38.5 22.6 49 8.3 SE 6 9 3 5 1007.7 1006.1 -
28/08:30am 32.3 35.9 22.1 55 7.0 SW 6 9 3 5 1007.6 1006.0 -
28/08:00am 31.5 34.6 22.2 57 6.4 SSW 9 15 5 8 1007.5 1005.9 -
28/07:30am 30.1 34.0 22.5 63 5.2 SW 6 7 3 4 1007.4 1005.8 -
28/07:00am 28.9 33.1 23.1 71 4.0 WSW 6 9 3 5 1007.3 1005.7 -
28/06:30am 28.0 33.0 23.8 78 2.9 S 4 6 2 3 1007.0 1005.4 -
28/06:00am 27.2 31.4 23.2 79 2.8 S 6 7 3 4 1007.0 1005.4 -
28/05:30am 27.7 32.2 22.9 75 3.3 SSW 4 9 2 5 1006.8 1005.2 -
28/05:00am 28.0 32.0 22.7 73 3.6 WSW 6 11 3 6 1006.6 1005.0 -
28/04:30am 28.3 31.6 22.5 71 4.0 WSW 9 17 5 9 1006.3 1004.7 -
28/04:00am 28.0 31.4 23.4 76 3.2 WSW 11 17 6 9 1006.1 1004.6 -
28/03:30am 27.7 31.9 24.1 81 2.5 W 9 13 5 7 1006.4 1004.8 -
28/03:00am 27.9 31.7 24.1 80 2.6 W 11 17 6 9 1006.5 1004.9 -
28/02:30am 27.9 32.4 23.9 79 2.8 WSW 7 13 4 7 1006.9 1005.3 -
28/02:00am 27.4 34.4 25.8 91 1.1 CALM 0 0 0 0 1007.0 1005.4 -
28/01:30am 27.3 33.8 25.1 88 1.5 CALM 0 4 0 2 1007.1 1005.5 -
28/01:00am 27.4 31.6 23.4 79 2.8 NW 7 11 4 6 1007.1 1005.5 -
28/12:30am 26.2 28.7 23.1 83 2.1 NW 15 20 8 11 1007.9 1006.3 -
28/12:28am 26.3 29.0 23.4 84 2.0 NW 15 20 8 11 1008.0 1006.4 -
28/12:00am 30.1 32.0 22.0 62 5.5 NNE 15 22 8 12 1010.0 1008.5 0.0
 
Date/Time
WST
Temp
°C
App
Temp
°C
Dew
Point
°C
Rel
Hum
%
Delta-T
°C
Wind Press
QNH
hPa
Press
MSL
hPa
Rain since
9am
mm
Dir  Spd
km/h
Gust
km/h
Spd
kts
Gust
kts
27/11:30pm 29.8 31.8 23.0 67 4.7 NNE 17 30 9 16 1009.7 1008.2 0.0
27/11:00pm 30.3 31.8 23.0 65 5.0 NE 20 32 11 17 1009.5 1008.0 0.0
27/10:30pm 31.4 33.6 21.8 56 6.5 N 13 17 7 9 1007.9 1006.3 0.0
27/10:00pm 32.1 35.3 21.6 53 7.2 N 7 9 4 5 1007.6 1006.0 0.0
27/09:30pm 32.3 35.8 22.1 55 7.0 NW 7 11 4 6 1007.0 1005.4 0.0
27/09:00pm 32.6 35.1 22.4 55 7.0 NW 13 20 7 11 1006.6 1005.0 0.0
27/08:30pm 33.4 35.7 22.8 53 7.3 NW 15 26 8 14 1005.9 1004.4 0.0
27/08:00pm 34.1 36.0 22.8 51 7.9 NW 17 32 9 17 1005.5 1004.0 0.0
27/07:30pm 35.8 37.1 22.4 46 9.3 NW 19 30 10 16 1005.0 1003.5 0.0
27/07:00pm 37.5 38.2 18.0 31 12.9 WNW 11 24 6 13 1004.6 1003.1 0.0
27/06:30pm 38.4 39.2 17.2 28 13.8 WNW 9 15 5 8 1004.4 1002.9 0.0
27/06:00pm 39.6 40.7 17.1 26 14.8 NW 7 13 4 7 1004.3 1002.8 0.0
27/05:30pm 40.4 41.2 17.2 26 15.2 NW 9 17 5 9 1004.1 1002.6 0.0
27/05:00pm 40.0 40.1 17.4 26 14.9 WNW 13 19 7 10 1004.0 1002.5 0.0
27/04:30pm 40.2 40.4 17.6 26 14.9 WNW 13 19 7 10 1004.1 1002.6 0.0
27/04:00pm 40.2 40.9 17.0 25 15.2 WSW 9 15 5 8 1004.2 1002.7 0.0
27/03:30pm 40.3 40.6 17.1 25 15.2 SW 11 17 6 9 1004.2 1002.7 0.0
27/03:00pm 41.2 42.3 16.6 24 16.1 W 6 13 3 7 1004.4 1002.9 0.0
27/02:30pm 40.9 41.7 16.3 23 16.0 WSW 7 15 4 8 1004.6 1003.1 0.0
27/02:00pm 40.7 41.3 16.8 24 15.7 SSW 9 17 5 9 1004.8 1003.3 0.0
27/01:30pm 40.6 41.5 16.7 24 15.6 SSW 7 17 4 9 1005.2 1003.7 0.0
27/01:00pm 40.2 41.3 17.0 25 15.2 W 7 13 4 7 1005.7 1004.2 0.0
27/12:30pm 39.7 40.1 17.2 27 14.7 SSW 11 19 6 10 1006.4 1004.8 0.0
27/12:00pm 39.0 40.8 18.8 30 13.5 SSE 7 13 4 7 1006.9 1005.3 0.0
27/11:30am 38.8 40.5 18.6 30 13.4 SSW 7 13 4 7 1007.3 1005.7 0.0
27/11:00am 37.3 39.7 19.7 35 11.9 SSW 6 11 3 6 1007.5 1005.9 0.0
27/10:30am 36.3 38.4 20.9 40 10.5 WSW 11 15 6 8 1007.7 1006.1 0.0
27/10:00am 35.3 38.9 22.3 47 9.0 SW 7 13 4 7 1007.9 1006.3 0.0
27/09:30am 34.5 38.0 22.2 48 8.5 WSW 7 13 4 7 1008.1 1006.5 0.0
27/09:00am 33.8 38.0 23.2 54 7.4 WSW 6 9 3 5 1008.2 1006.6 0.0
27/08:30am 32.2 36.7 22.9 58 6.4 WNW 4 7 2 4 1008.3 1006.7 0.0
27/08:00am 31.3 36.2 23.1 61 5.7 WSW 2 6 1 3 1008.1 1006.5 0.0
27/07:30am 29.9 34.2 23.6 69 4.4 W 7 11 4 6 1008.1 1006.5 0.0
27/07:00am 28.7 34.2 24.0 76 3.3 WNW 2 4 1 2 1008.0 1006.4 0.0
27/06:30am 27.6 33.0 23.2 77 3.0 CALM 0 0 0 0 1007.8 1006.2 0.0
27/06:00am 27.4 32.5 22.6 75 3.3 CALM 0 0 0 0 1007.5 1005.9 0.0
27/05:30am 27.6 31.7 22.3 73 3.6 WNW 4 6 2 3 1007.4 1005.8 0.0
27/05:00am 27.7 31.8 22.2 72 3.7 WNW 4 6 2 3 1007.2 1005.6 0.0
27/04:30am 27.9 31.6 22.2 71 3.9 WNW 6 9 3 5 1006.9 1005.3 0.0
27/04:00am 28.1 31.6 21.9 69 4.2 W 6 9 3 5 1006.8 1005.2 0.0
27/03:30am 27.9 32.3 21.4 67 4.4 CALM 0 0 0 0 1006.9 1005.3 0.0
27/03:00am 28.3 32.7 21.3 65 4.7 CALM 0 0 0 0 1006.6 1005.0 0.0
27/02:30am 28.6 31.5 21.1 64 5.0 W 7 9 4 5 1006.7 1005.1 0.0
27/02:00am 28.9 32.3 20.9 62 5.4 WNW 4 7 2 4 1006.4 1004.8 0.0
27/01:30am 29.2 32.8 21.2 62 5.4 NW 4 6 2 3 1006.5 1004.9 0.0
27/01:00am 29.6 32.5 21.0 60 5.8 WNW 7 15 4 8 1006.9 1005.3 0.0
27/12:30am 30.1 32.9 20.4 56 6.5 NW 6 9 3 5 1006.9 1005.3 0.0
27/12:00am 30.6 33.1 19.9 52 7.1 NNW 6 15 3 8 1006.8 1005.2 0.0
 
Date/Time
WST
Temp
°C
App
Temp
°C
Dew
Point
°C
Rel
Hum
%
Delta-T
°C
Wind Press
QNH
hPa
Press
MSL
hPa
Rain since
9am
mm
Dir  Spd
km/h
Gust
km/h
Spd
kts
Gust
kts
26/11:30pm 30.8 33.7 20.7 55 6.8 NNW 6 6 3 3 1006.9 1005.3 0.0
26/11:00pm 31.3 34.7 20.9 54 7.0 WNW 4 9 2 5 1006.9 1005.3 0.0
26/10:30pm 31.8 35.0 21.6 54 6.9 NW 7 11 4 6 1006.9 1005.3 0.0
26/10:00pm 31.8 35.8 22.8 59 6.2 NNE 6 9 3 5 1007.0 1005.4 0.0
26/09:30pm 32.0 35.7 23.3 60 6.0 NW 9 15 5 8 1006.9 1005.3 0.0
26/09:00pm 32.3 36.2 23.0 58 6.5 NNW 7 15 4 8 1006.8 1005.2 0.0
26/08:30pm 32.9 35.9 22.7 55 7.0 NW 11 19 6 10 1006.5 1004.9 0.0
26/08:00pm 33.5 36.8 22.6 53 7.6 NW 9 19 5 10 1005.9 1004.4 0.0
26/07:30pm 34.0 36.3 22.7 51 7.8 NW 15 20 8 11 1005.7 1004.2 0.0
26/07:00pm 34.9 36.5 22.2 47 8.8 NW 17 26 9 14 1005.3 1003.8 0.0
26/06:30pm 36.4 38.2 22.5 44 9.7 NNW 17 28 9 15 1004.6 1003.1 0.0
26/06:00pm 38.8 40.4 17.0 27 14.3 NW 4 6 2 3 1004.3 1002.8 0.0
26/05:30pm 39.7 39.8 14.0 22 16.1 N 6 9 3 5 1004.2 1002.7 0.0
26/05:00pm 40.2 40.0 13.7 21 16.6 N 7 11 4 6 1004.3 1002.8 0.0
26/04:30pm 40.5 41.0 13.9 21 16.7 NNE 4 9 2 5 1004.2 1002.7 0.0
26/04:00pm 40.7 39.5 14.1 21 16.8 NNE 13 20 7 11 1004.3 1002.8 0.0
26/03:30pm 41.3 40.7 14.6 21 17.0 NNE 11 24 6 13 1004.3 1002.8 0.0
26/03:00pm 42.3 41.7 14.6 19 17.7 NE 11 20 6 11 1004.6 1003.1 0.0
26/02:30pm 41.5 40.8 13.2 19 17.7 NE 9 22 5 12 1005.1 1003.6 0.0
26/02:00pm 41.8 41.1 14.2 19 17.5 NNE 11 20 6 11 1005.2 1003.7 0.0
26/01:30pm 41.6 40.4 14.1 20 17.4 NNE 13 22 7 12 1005.3 1003.8 0.0
26/01:00pm 40.9 41.7 16.3 23 16.0 NE 7 15 4 8 1005.8 1004.3 0.0
26/12:30pm 39.6 41.7 19.3 30 13.7 WNW 7 11 4 6 1006.5 1004.9 0.0
26/12:00pm 39.0 42.1 20.3 34 12.7 SSE 4 13 2 7 1007.0 1005.4 0.0
26/11:30am 37.6 40.3 21.3 39 11.2 W 9 15 5 8 1007.6 1006.0 0.0
26/11:00am 37.3 40.6 21.8 40 10.7 WNW 7 15 4 8 1008.0 1006.4 0.0
26/10:30am 35.6 39.1 21.8 44 9.5 SW 6 11 3 6 1008.3 1006.7 0.0
26/10:00am 34.8 38.3 22.8 49 8.4 WSW 9 15 5 8 1008.4 1006.8 0.0
26/09:30am 33.3 36.9 23.0 54 7.2 WSW 9 17 5 9 1008.6 1007.0 0.0
26/09:00am 32.7 36.3 23.1 57 6.7 W 9 15 5 8 1008.8 1007.3 0.0
26/08:30am 31.3 34.4 22.9 61 5.8 W 11 17 6 9 1009.0 1007.5 0.0
26/08:00am 30.4 34.3 23.6 67 4.7 WNW 9 13 5 7 1008.5 1006.9 0.0
26/07:30am 29.5 33.6 23.0 68 4.5 W 6 9 3 5 1008.4 1006.8 0.0
26/07:00am 28.6 32.9 23.7 75 3.4 NNW 7 9 4 5 1008.2 1006.6 0.0
26/06:30am 27.8 32.7 24.4 82 2.4 NW 6 7 3 4 1007.8 1006.2 0.0
26/06:00am 27.3 31.9 24.2 83 2.2 NW 7 7 4 4 1007.6 1006.0 0.0
26/05:30am 27.4 32.1 23.4 79 2.8 NNW 4 6 2 3 1007.4 1005.8 0.0
26/05:00am 27.7 32.3 23.1 76 3.2 NNW 4 6 2 3 1007.2 1005.6 0.0
26/04:30am 27.9 32.5 23.1 75 3.3 NW 4 7 2 4 1007.0 1005.4 0.0
26/04:00am 28.1 32.2 23.2 74 3.4 WNW 7 11 4 6 1006.7 1005.1 0.0
26/03:30am 28.3 32.1 22.8 72 3.8 W 7 9 4 5 1006.6 1005.0 0.0
26/03:00am 28.5 32.2 22.5 70 4.1 W 7 11 4 6 1006.6 1005.0 0.0
26/02:30am 28.8 32.3 22.1 67 4.5 WNW 7 11 4 6 1006.9 1005.3 0.0
26/02:00am 29.1 31.9 21.6 64 5.1 WNW 9 15 5 8 1006.9 1005.3 0.0
26/01:30am 29.1 33.0 21.8 64 4.9 WNW 4 6 2 3 1007.2 1005.6 0.0
26/01:00am 29.7 32.6 21.1 60 5.8 NW 7 11 4 6 1007.6 1006.0 0.0
26/12:30am 30.2 32.9 20.7 56 6.4 NW 7 11 4 6 1007.7 1006.1 0.0
26/12:00am 30.5 32.9 20.1 53 6.9 NNW 7 11 4 6 1007.7 1006.1 0.0
 
Date/Time
WST
Temp
°C
App
Temp
°C
Dew
Point
°C
Rel
Hum
%
Delta-T
°C
Wind Press
QNH
hPa
Press
MSL
hPa
Rain since
9am
mm
Dir  Spd
km/h
Gust
km/h
Spd
kts
Gust
kts
25/11:30pm 30.9 34.0 20.2 53 7.1 NW 4 6 2 3 1007.7 1006.1 0.0

Other formats

Comma delimited format used in spreadsheet applications
http://www.bom.gov.au/fwo/IDW60801/IDW60801.95317.axf

JavaScript Object Notation format (JSON) in row-major order
http://www.bom.gov.au/fwo/IDW60801/IDW60801.95317.json

Data quality

Most of these data are generated automatically and are frequently updated. Quality checks on data are not normally performed. It is possible for incorrect values to appear. Refer to information at About Latest Weather Observations and please check the disclaimer before using these data.